createdAt,value
2022-12-01T00:01:04.190Z,101140.38
2022-12-01T00:03:32.137Z,101142.09
2022-12-01T00:06:12.940Z,101144.84
2022-12-01T00:08:39.402Z,101144.91
2022-12-01T00:11:07.076Z,101123.28
2022-12-01T00:13:34.491Z,101142.34
2022-12-01T00:16:15.633Z,101147.69
2022-12-01T00:18:42.684Z,101145.91
2022-12-01T00:21:17.705Z,101152.84
2022-12-01T00:23:49.159Z,101155.50
2022-12-01T00:26:17.439Z,101159.06
2022-12-01T00:28:44.016Z,101155.56
2022-12-01T00:31:12.340Z,101156.50
2022-12-01T00:33:39.830Z,101162.72
2022-12-01T00:36:07.373Z,101157.38
2022-12-01T00:38:34.510Z,101157.44
2022-12-01T00:41:01.290Z,101159.19
2022-12-01T00:43:27.889Z,101159.88
2022-12-01T00:45:56.340Z,101163.38
2022-12-01T00:48:23.642Z,101161.81
2022-12-01T00:50:52.442Z,101159.22
2022-12-01T00:53:19.128Z,101163.59
2022-12-01T00:55:45.924Z,101161.06
2022-12-01T00:58:12.792Z,101133.31
2022-12-01T01:00:39.358Z,101166.38
2022-12-01T01:03:09.526Z,101168.16
2022-12-01T01:05:37.440Z,101146.47
2022-12-01T01:08:07.368Z,101174.41
2022-12-01T01:10:34.347Z,101178.00
2022-12-01T01:13:00.895Z,101174.53
2022-12-01T01:15:27.436Z,101181.59
2022-12-01T01:17:54.022Z,101162.59
2022-12-01T01:20:20.583Z,101175.72
2022-12-01T01:22:47.115Z,101178.28
2022-12-01T01:25:13.760Z,101186.09
2022-12-01T01:27:40.295Z,101180.91
2022-12-01T01:30:07.411Z,101183.50
2022-12-01T01:32:34.008Z,101192.19
2022-12-01T01:35:00.571Z,101180.84
2022-12-01T01:37:27.142Z,101187.13
2022-12-01T01:39:53.769Z,101198.47
2022-12-01T01:42:20.972Z,101188.84
2022-12-01T01:44:50.115Z,101197.63
2022-12-01T01:47:22.066Z,101191.41
2022-12-01T01:49:48.980Z,101199.38
2022-12-01T01:52:16.383Z,101201.16
2022-12-01T01:54:47.853Z,101202.97
2022-12-01T01:57:20.644Z,101202.19
2022-12-01T01:59:52.562Z,101198.66
2022-12-01T02:02:19.238Z,101204.78
2022-12-01T02:04:51.283Z,101203.84
2022-12-01T02:07:19.255Z,101202.09
2022-12-01T02:09:46.563Z,101201.16
2022-12-01T02:12:25.259Z,101188.91
2022-12-01T02:15:12.969Z,101187.13
2022-12-01T02:18:07.409Z,101189.66
2022-12-01T02:21:01.945Z,101194.97
2022-12-01T02:23:57.900Z,101180.22
2022-12-01T02:26:39.875Z,101194.13
2022-12-01T02:29:40.339Z,101194.91
2022-12-01T02:32:40.015Z,101170.59
2022-12-01T02:35:21.630Z,101189.75
2022-12-01T02:38:02.289Z,101174.84
2022-12-01T02:40:44.761Z,101184.34
2022-12-01T02:43:40.832Z,101184.31
2022-12-01T02:46:33.107Z,101193.09
2022-12-01T02:49:04.815Z,101194.03
2022-12-01T02:51:33.791Z,101189.72
2022-12-01T02:54:02.797Z,101190.50
2022-12-01T02:56:29.348Z,101197.44
2022-12-01T02:58:56.054Z,101201.00
2022-12-01T03:01:27.102Z,101202.78
2022-12-01T03:04:02.715Z,101199.34
2022-12-01T03:06:41.477Z,101200.31
2022-12-01T03:09:34.447Z,101197.72
2022-12-01T03:12:10.722Z,101193.34
2022-12-01T03:14:37.202Z,101197.72
2022-12-01T03:17:10.977Z,101194.28
2022-12-01T03:19:39.113Z,101183.81
2022-12-01T03:22:22.954Z,101194.19
2022-12-01T03:24:51.454Z,101181.03
2022-12-01T03:27:23.151Z,101187.09
2022-12-01T03:29:53.513Z,101185.25
2022-12-01T03:32:32.334Z,101187.91
2022-12-01T03:35:00.130Z,101183.50
2022-12-01T03:37:33.144Z,101174.84
2022-12-01T03:40:02.729Z,101180.13
2022-12-01T03:42:37.313Z,101175.81
2022-12-01T03:45:12.347Z,101188.03
2022-12-01T03:47:40.439Z,101181.03
2022-12-01T03:50:11.473Z,101193.28
2022-12-01T03:52:46.907Z,101188.06
2022-12-01T03:55:42.827Z,101191.66
2022-12-01T03:58:13.667Z,101197.78
2022-12-01T04:00:41.736Z,101178.66
2022-12-01T04:03:08.313Z,101189.13
2022-12-01T04:05:35.533Z,101202.19
2022-12-01T04:08:02.287Z,101194.38
2022-12-01T04:10:29.153Z,101210.03
2022-12-01T04:12:59.347Z,101200.34
2022-12-01T04:15:26.703Z,101211.66
2022-12-01T04:17:53.845Z,101205.53
2022-12-01T04:20:21.144Z,101209.94
2022-12-01T04:22:48.305Z,101215.19
2022-12-01T04:25:15.076Z,101208.28
2022-12-01T04:27:41.909Z,101206.53
2022-12-01T04:30:09.533Z,101180.50
2022-12-01T04:32:43.237Z,101211.78
2022-12-01T04:35:11.798Z,101214.44
2022-12-01T04:37:39.235Z,101217.09
2022-12-01T04:40:06.443Z,101212.75
2022-12-01T04:42:32.983Z,101209.25
2022-12-01T04:44:59.543Z,101210.09
2022-12-01T04:47:26.103Z,101214.50
2022-12-01T04:49:52.622Z,101215.41
2022-12-01T04:52:19.157Z,101207.53
2022-12-01T04:54:45.680Z,101203.09
2022-12-01T04:57:12.242Z,101199.56
2022-12-01T04:59:38.773Z,101197.88
2022-12-01T05:02:05.408Z,101202.22
2022-12-01T05:04:34.000Z,101205.72
2022-12-01T05:07:00.606Z,101195.25
2022-12-01T05:09:27.163Z,101206.63
2022-12-01T05:11:53.711Z,101205.75
2022-12-01T05:14:20.260Z,101205.78
2022-12-01T05:16:46.797Z,101203.13
2022-12-01T05:19:32.003Z,101201.47
2022-12-01T05:21:58.540Z,101207.50
2022-12-01T05:24:25.972Z,101199.59
2022-12-01T05:26:52.582Z,101198.75
2022-12-01T05:29:19.213Z,101207.50
2022-12-01T05:31:46.696Z,101204.03
2022-12-01T05:34:13.443Z,101209.34
2022-12-01T05:36:39.978Z,101208.41
2022-12-01T05:39:06.466Z,101213.63
2022-12-01T05:41:33.060Z,101204.09
2022-12-01T05:43:59.616Z,101180.56
2022-12-01T05:46:26.307Z,101217.94
2022-12-01T05:48:53.188Z,101207.47
2022-12-01T05:51:19.729Z,101217.09
2022-12-01T05:53:46.656Z,101214.47
2022-12-01T05:56:13.339Z,101227.59
2022-12-01T05:58:39.923Z,101221.47
2022-12-01T06:01:06.693Z,101224.03
2022-12-01T06:03:33.447Z,101226.59
2022-12-01T06:06:00.207Z,101227.47
2022-12-01T06:08:26.888Z,101222.28
2022-12-01T06:10:53.545Z,101235.44
2022-12-01T06:13:20.148Z,101226.75
2022-12-01T06:16:03.073Z,101211.13
2022-12-01T06:18:38.644Z,101233.72
2022-12-01T06:21:06.787Z,101227.66
2022-12-01T06:23:33.541Z,101227.63
2022-12-01T06:26:00.243Z,101232.84
2022-12-01T06:28:26.731Z,101232.84
2022-12-01T06:30:57.804Z,101238.16
2022-12-01T06:33:27.735Z,101239.00
2022-12-01T06:35:59.380Z,101243.34
2022-12-01T06:38:26.191Z,101252.06
2022-12-01T06:40:52.711Z,101256.41
2022-12-01T06:43:19.300Z,101243.34
2022-12-01T06:45:45.981Z,101259.91
2022-12-01T06:48:12.839Z,101254.69
2022-12-01T06:50:39.458Z,101259.06
2022-12-01T06:53:06.034Z,101262.63
2022-12-01T06:55:32.617Z,101263.50
2022-12-01T06:58:00.880Z,101259.13
2022-12-01T07:00:28.068Z,101271.38
2022-12-01T07:02:54.797Z,101260.97
2022-12-01T07:05:21.542Z,101267.13
2022-12-01T07:07:48.097Z,101261.03
2022-12-01T07:10:14.707Z,101262.78
2022-12-01T07:12:41.308Z,101263.63
2022-12-01T07:15:09.014Z,101265.38
2022-12-01T07:17:36.334Z,101269.75
2022-12-01T07:20:04.143Z,101272.34
2022-12-01T07:22:32.894Z,101255.91
2022-12-01T07:24:59.640Z,101253.28
2022-12-01T07:27:29.698Z,101291.66
2022-12-01T07:29:56.203Z,101282.06
2022-12-01T07:32:22.735Z,101289.91
2022-12-01T07:34:49.387Z,101295.16
2022-12-01T07:37:16.047Z,101294.25
2022-12-01T07:39:42.611Z,101296.03
2022-12-01T07:42:09.179Z,101301.25
2022-12-01T07:44:35.737Z,101291.63
2022-12-01T07:47:02.359Z,101295.06
2022-12-01T07:49:28.953Z,101295.06
2022-12-01T07:51:55.618Z,101300.25
2022-12-01T07:54:23.000Z,101296.00
2022-12-01T07:56:49.612Z,101309.13
2022-12-01T07:59:16.169Z,101311.75
2022-12-01T08:01:44.747Z,101307.44
2022-12-01T08:04:11.725Z,101306.59
2022-12-01T08:06:38.541Z,101309.22
2022-12-01T08:09:05.202Z,101317.97
2022-12-01T08:11:31.836Z,101312.75
2022-12-01T08:13:58.477Z,101317.09
2022-12-01T08:16:25.888Z,101319.75
2022-12-01T08:18:53.534Z,101325.00
2022-12-01T08:21:22.407Z,101325.00
2022-12-01T08:23:52.398Z,101326.75
2022-12-01T08:26:20.171Z,101327.69
2022-12-01T08:28:47.332Z,101338.19
2022-12-01T08:31:18.228Z,101307.72
2022-12-01T08:33:45.726Z,101338.22
2022-12-01T08:36:12.308Z,101333.84
2022-12-01T08:38:39.048Z,101335.59
2022-12-01T08:41:08.116Z,101324.25
2022-12-01T08:46:28.189Z,101324.13
2022-12-01T08:48:57.236Z,101317.19
2022-12-01T08:51:24.299Z,101332.00
2022-12-01T08:53:51.040Z,101337.22
2022-12-01T08:56:24.087Z,101331.13
2022-12-01T08:58:51.831Z,101332.00
2022-12-01T09:01:19.230Z,101284.13
2022-12-01T09:03:46.433Z,101338.97
2022-12-01T09:06:15.966Z,101334.63
2022-12-01T09:08:42.820Z,101328.50
2022-12-01T09:11:15.938Z,101342.47
2022-12-01T09:13:43.544Z,101338.06
2022-12-01T09:16:17.916Z,101326.69
2022-12-01T09:18:46.349Z,101337.06
2022-12-01T09:21:15.698Z,101304.72
2022-12-01T09:23:42.605Z,101331.66
2022-12-01T09:26:13.541Z,101331.59
2022-12-01T09:28:40.771Z,101334.19
2022-12-01T09:31:09.586Z,101324.50
2022-12-01T09:33:36.704Z,101323.53
2022-12-01T09:36:04.352Z,101339.25
2022-12-01T09:38:32.936Z,101333.13
2022-12-01T09:41:07.440Z,101316.63
2022-12-01T09:43:41.965Z,101327.06
2022-12-01T09:46:16.097Z,101328.88
2022-12-01T09:48:45.904Z,101321.94
2022-12-01T09:51:16.313Z,101307.97
2022-12-01T09:53:44.895Z,101317.50
2022-12-01T09:56:20.452Z,101308.75
2022-12-01T09:58:51.406Z,101279.94
2022-12-01T10:01:27.114Z,101307.75
2022-12-01T10:03:59.267Z,101312.13
2022-12-01T10:06:43.797Z,101264.22
2022-12-01T10:09:44.418Z,101299.13
2022-12-01T10:12:15.461Z,101289.53
2022-12-01T10:14:45.313Z,101291.19
2022-12-01T10:17:35.209Z,101292.00
2022-12-01T10:20:09.359Z,101287.63
2022-12-01T10:23:12.771Z,101284.00
2022-12-01T10:25:57.922Z,101272.63
2022-12-01T10:28:36.676Z,101275.88
2022-12-01T10:31:44.994Z,101274.06
2022-12-01T10:34:16.736Z,101278.28
2022-12-01T10:36:43.444Z,101265.19
2022-12-01T10:39:18.100Z,101270.47
2022-12-01T10:41:45.860Z,101267.00
2022-12-01T10:44:12.440Z,101264.28
2022-12-01T10:46:48.430Z,101269.50
2022-12-01T10:49:16.899Z,101261.59
2022-12-01T10:51:47.755Z,101258.19
2022-12-01T10:54:14.402Z,101261.63
2022-12-01T10:56:43.137Z,101256.31
2022-12-01T10:59:25.255Z,101255.47
2022-12-01T11:01:53.263Z,101259.84
2022-12-01T11:04:45.069Z,101233.81
2022-12-01T11:07:28.250Z,101243.41
2022-12-01T11:10:13.152Z,101251.16
2022-12-01T11:12:40.088Z,101245.84
2022-12-01T11:15:07.842Z,101244.09
2022-12-01T11:17:42.972Z,101218.91
2022-12-01T11:20:29.352Z,101242.25
2022-12-01T11:23:20.663Z,101246.56
2022-12-01T11:26:07.872Z,101247.47
2022-12-01T11:28:35.657Z,101247.31
2022-12-01T11:31:05.781Z,101242.91
2022-12-01T11:33:50.282Z,101241.94
2022-12-01T11:36:28.267Z,101236.72
2022-12-01T11:38:59.545Z,101225.38
2022-12-01T11:41:37.125Z,101234.91
2022-12-01T11:44:12.782Z,101235.00
2022-12-01T11:46:55.821Z,101228.88
2022-12-01T11:49:46.901Z,101234.91
2022-12-01T11:52:40.948Z,101230.47
2022-12-01T11:55:13.633Z,101229.47
2022-12-01T11:57:44.166Z,101225.16
2022-12-01T12:00:14.235Z,101226.91
2022-12-01T12:03:14.141Z,101216.34
2022-12-01T12:06:38.942Z,101202.44
2022-12-01T12:09:04.757Z,101222.28
2022-12-01T12:12:12.034Z,101221.31
2022-12-01T12:15:10.703Z,101221.31
2022-12-01T12:17:58.569Z,101222.22
2022-12-01T12:20:34.233Z,101216.25
2022-12-01T12:23:25.075Z,101217.25
2022-12-01T12:26:14.261Z,101212.09
2022-12-01T12:29:17.345Z,101182.63
2022-12-01T12:31:58.184Z,101213.94
2022-12-01T12:34:30.812Z,101201.63
2022-12-01T12:37:16.325Z,101193.78
2022-12-01T12:40:22.526Z,101199.06
2022-12-01T12:43:04.151Z,101194.66
2022-12-01T12:45:50.518Z,101191.13
2022-12-01T12:48:26.157Z,101181.56
2022-12-01T12:51:05.132Z,101192.03
2022-12-01T12:53:46.408Z,101181.44
2022-12-01T12:56:17.418Z,101191.69
2022-12-01T12:59:13.953Z,101187.16
2022-12-01T13:01:45.813Z,101187.28
2022-12-01T13:04:20.556Z,101171.63
2022-12-01T13:07:08.367Z,101175.00
2022-12-01T13:09:45.503Z,101142.91
2022-12-01T13:12:30.331Z,101190.69
2022-12-01T13:15:06.568Z,101178.56
2022-12-01T13:17:38.357Z,101194.41
2022-12-01T13:20:06.497Z,101189.38
2022-12-01T13:22:35.440Z,101186.78
2022-12-01T13:25:04.118Z,101187.66
2022-12-01T13:27:38.459Z,101180.69
2022-12-01T13:30:05.648Z,101162.41
2022-12-01T13:32:40.844Z,101158.09
2022-12-01T13:35:30.155Z,101174.47
2022-12-01T13:38:31.536Z,101168.41
2022-12-01T13:41:23.374Z,101179.81
2022-12-01T13:44:02.102Z,101182.59
2022-12-01T13:46:42.183Z,101172.13
2022-12-01T13:49:40.510Z,101175.53
2022-12-01T13:52:22.059Z,101168.50
2022-12-01T13:55:10.842Z,101176.47
2022-12-01T13:57:44.115Z,101174.72
2022-12-01T14:00:28.042Z,101182.63
2022-12-01T14:03:12.853Z,101174.78
2022-12-01T14:05:42.486Z,101171.38
2022-12-01T14:08:30.357Z,101176.59
2022-12-01T14:10:58.111Z,101177.53
2022-12-01T14:13:25.783Z,101165.47
2022-12-01T14:15:59.017Z,101175.06
2022-12-01T14:18:25.661Z,101172.47
2022-12-01T14:20:52.466Z,101164.59
2022-12-01T14:23:36.435Z,101161.88
2022-12-01T14:26:15.067Z,101165.38
2022-12-01T14:28:59.922Z,101167.13
2022-12-01T14:31:35.389Z,101161.13
2022-12-01T14:34:06.749Z,101145.56
2022-12-01T14:36:41.104Z,101156.81
2022-12-01T14:39:19.139Z,101139.50
2022-12-01T14:42:34.099Z,101160.31
2022-12-01T14:45:03.580Z,101152.44
2022-12-01T14:51:34.919Z,101151.56
2022-12-01T14:54:04.157Z,101152.53
2022-12-01T14:56:33.204Z,101152.59
2022-12-01T14:59:13.714Z,101159.63
2022-12-01T15:01:41.050Z,101154.53
2022-12-01T15:04:07.605Z,101160.63
2022-12-01T15:06:36.009Z,101145.78
2022-12-01T15:12:00.900Z,101152.00
2022-12-01T15:14:33.769Z,101149.44
2022-12-01T15:17:02.569Z,101148.56
2022-12-01T15:19:39.565Z,101148.59
2022-12-01T15:22:17.788Z,101131.22
2022-12-01T15:24:45.436Z,101146.88
2022-12-01T15:27:32.492Z,101148.59
2022-12-01T15:30:04.457Z,101154.78
2022-12-01T15:32:34.559Z,101153.88
2022-12-01T15:35:03.522Z,101126.94
2022-12-01T15:37:40.499Z,101148.72
2022-12-01T15:40:54.498Z,101149.59
2022-12-01T15:43:13.723Z,101149.59
2022-12-01T15:45:55.724Z,101149.56
2022-12-01T15:48:32.032Z,101124.44
2022-12-01T15:51:03.271Z,101160.97
2022-12-01T15:53:34.628Z,101175.91
2022-12-01T15:56:11.861Z,101162.81
2022-12-01T15:58:47.580Z,101150.53
2022-12-01T16:01:19.765Z,101153.16
2022-12-01T16:04:04.279Z,101154.03
2022-12-01T16:06:33.612Z,101164.59
2022-12-01T16:09:06.702Z,101161.13
2022-12-01T16:11:33.766Z,101155.91
2022-12-01T16:14:24.769Z,101161.09
2022-12-01T16:16:51.779Z,101157.63
2022-12-01T16:19:18.330Z,101141.13
2022-12-01T16:21:46.673Z,101169.00
2022-12-01T16:24:22.440Z,101162.13
2022-12-01T16:26:59.444Z,101157.84
2022-12-01T16:29:27.476Z,101166.53
2022-12-01T16:32:19.439Z,101164.78
2022-12-01T16:34:46.858Z,101163.94
2022-12-01T16:37:14.723Z,101161.31
2022-12-01T16:39:41.671Z,101164.91
2022-12-01T16:42:12.696Z,101170.06
2022-12-01T16:44:39.345Z,101173.53
2022-12-01T16:47:18.537Z,101169.19
2022-12-01T16:49:45.328Z,101171.81
2022-12-01T16:52:43.005Z,101185.00
2022-12-01T16:55:00.428Z,101180.56
2022-12-01T16:57:27.542Z,101177.06
2022-12-01T16:59:54.096Z,101177.03
2022-12-01T17:02:20.766Z,101175.28
2022-12-01T17:04:47.529Z,101148.28
2022-12-01T17:07:14.363Z,101167.41
2022-12-01T17:09:40.958Z,101164.81
2022-12-01T17:12:09.144Z,101144.97
2022-12-01T17:14:38.223Z,101170.13
2022-12-01T17:17:04.949Z,101178.06
2022-12-01T17:19:31.572Z,101174.56
2022-12-01T17:21:58.254Z,101171.09
2022-12-01T17:24:25.976Z,101170.22
2022-12-01T17:26:52.609Z,101164.03
2022-12-01T17:29:19.150Z,101160.59
2022-12-01T17:31:45.674Z,101171.06
2022-12-01T17:34:12.221Z,101163.22
2022-12-01T17:36:38.812Z,101164.09
2022-12-01T17:39:05.703Z,101167.59
2022-12-01T17:41:35.657Z,101170.19
2022-12-01T17:44:03.835Z,101137.16
2022-12-01T17:46:31.197Z,101153.66
2022-12-01T17:48:59.290Z,101158.88
2022-12-01T17:51:25.977Z,101159.81
2022-12-01T17:53:54.008Z,101147.63
2022-12-01T17:56:20.589Z,101169.34
2022-12-01T17:58:50.365Z,101156.34
2022-12-01T18:01:19.247Z,101169.44
2022-12-01T18:03:46.510Z,101176.47
2022-12-01T18:06:13.856Z,101175.59
2022-12-01T18:08:40.905Z,101168.66
2022-12-01T18:11:11.109Z,101167.84
2022-12-01T18:13:38.651Z,101179.13
2022-12-01T18:16:14.062Z,101175.63
2022-12-01T18:18:41.269Z,101172.22
2022-12-01T18:21:10.245Z,101166.03
2022-12-01T18:23:36.994Z,101178.25
2022-12-01T18:26:15.471Z,101169.50
2022-12-01T18:28:42.471Z,101177.38
2022-12-01T18:31:14.906Z,101170.41
2022-12-01T18:33:43.298Z,101189.56
2022-12-01T18:36:14.111Z,101181.72
2022-12-01T18:38:41.182Z,101181.69
2022-12-01T18:41:08.248Z,101186.06
2022-12-01T18:43:36.192Z,101179.09
2022-12-01T18:46:05.233Z,101154.72
2022-12-01T18:48:32.548Z,101172.88
2022-12-01T18:51:07.588Z,101170.31
2022-12-01T18:53:34.542Z,101141.59
2022-12-01T18:56:03.421Z,101172.94
2022-12-01T18:58:31.102Z,101171.16
2022-12-01T19:00:58.168Z,101162.47
2022-12-01T19:03:24.911Z,101160.69
2022-12-01T19:05:51.529Z,101164.19
2022-12-01T19:08:18.218Z,101162.47
2022-12-01T19:10:44.826Z,101158.97
2022-12-01T19:13:11.713Z,101143.31
2022-12-01T19:15:38.370Z,101155.47
2022-12-01T19:18:05.192Z,101151.97
2022-12-01T19:20:31.867Z,101154.59
2022-12-01T19:22:58.794Z,101148.47
2022-12-01T19:25:25.604Z,101152.84
2022-12-01T19:27:53.181Z,101128.53
2022-12-01T19:30:19.916Z,101149.41
2022-12-01T19:32:46.643Z,101138.06
2022-12-01T19:35:13.260Z,101155.47
2022-12-01T19:37:39.873Z,101155.47
2022-12-01T19:40:08.553Z,101130.19
2022-12-01T19:42:35.226Z,101150.22
2022-12-01T19:45:01.788Z,101151.09
2022-12-01T19:47:32.951Z,101151.09
2022-12-01T19:49:59.881Z,101151.13
2022-12-01T19:52:26.512Z,101119.00
2022-12-01T19:54:53.332Z,101154.63
2022-12-01T19:57:20.488Z,101149.38
2022-12-01T19:59:47.129Z,101154.66
2022-12-01T20:02:13.756Z,101155.59
2022-12-01T20:04:40.875Z,101150.28
2022-12-01T20:07:07.658Z,101150.34
2022-12-01T20:09:34.297Z,101152.97
2022-12-01T20:12:00.793Z,101154.75
2022-12-01T20:14:27.376Z,101144.25
2022-12-01T20:16:56.948Z,101146.91
2022-12-01T20:19:23.537Z,101139.03
2022-12-01T20:21:50.222Z,101140.75
2022-12-01T20:24:19.960Z,101138.13
2022-12-01T20:26:49.664Z,101140.69
2022-12-01T20:29:22.039Z,101145.91
2022-12-01T20:31:49.925Z,101141.56
2022-12-01T20:34:20.796Z,101136.31
2022-12-01T20:36:48.215Z,101143.28
2022-12-01T20:39:15.792Z,101142.41
2022-12-01T20:41:43.267Z,101146.72
2022-12-01T20:44:10.119Z,101142.41
2022-12-01T20:46:38.214Z,101145.03
2022-12-01T20:49:05.198Z,101109.31
2022-12-01T20:51:33.391Z,101132.78
2022-12-01T20:54:31.087Z,101131.06
2022-12-01T20:56:49.142Z,101131.06
2022-12-01T20:59:15.677Z,101136.31
2022-12-01T21:01:42.389Z,101131.03
2022-12-01T21:04:11.312Z,101124.94
2022-12-01T21:06:37.830Z,101098.00
2022-12-01T21:09:05.081Z,101135.41
2022-12-01T21:11:55.412Z,101117.19
2022-12-01T21:14:30.077Z,101135.44
2022-12-01T21:17:03.394Z,101109.41
2022-12-01T21:19:43.919Z,101131.13
2022-12-01T21:22:12.907Z,101125.91
2022-12-01T21:24:43.824Z,101133.75
2022-12-01T21:27:16.041Z,101108.56
2022-12-01T21:29:48.142Z,101139.00
2022-12-01T21:32:18.273Z,101135.53
2022-12-01T21:34:47.324Z,101135.50
2022-12-01T21:37:21.178Z,101125.94
2022-12-01T21:39:50.942Z,101132.91
2022-12-01T21:42:30.028Z,101145.16
2022-12-01T21:44:57.293Z,101128.69
2022-12-01T21:47:29.764Z,101137.34
2022-12-01T21:49:58.303Z,101139.09
2022-12-01T21:52:48.023Z,101130.44
2022-12-01T21:55:17.100Z,101131.28
2022-12-01T21:57:46.622Z,101128.66
2022-12-01T22:00:27.249Z,101135.66
2022-12-01T22:03:29.019Z,101135.66
2022-12-01T22:06:28.351Z,101131.31
2022-12-01T22:08:57.828Z,101126.97
2022-12-01T22:11:27.177Z,101102.63
2022-12-01T22:14:09.064Z,101132.22
2022-12-01T22:16:40.411Z,101126.13
2022-12-01T22:19:18.623Z,101107.09
2022-12-01T22:21:47.724Z,101123.59
2022-12-01T22:24:29.284Z,101123.50
2022-12-01T22:27:31.363Z,101122.59
2022-12-01T22:30:11.034Z,101106.13
2022-12-01T22:33:05.571Z,101123.56
2022-12-01T22:35:36.370Z,101126.19
2022-12-01T22:38:05.944Z,101072.31
2022-12-01T22:40:35.440Z,101127.09
2022-12-01T22:43:20.119Z,101122.72
2022-12-01T22:46:17.505Z,101123.59
2022-12-01T22:48:47.687Z,101107.88
2022-12-01T22:51:14.297Z,101109.66
2022-12-01T22:53:42.172Z,101107.03
2022-12-01T22:56:29.103Z,101107.06
2022-12-01T22:58:56.304Z,101107.03
2022-12-01T23:01:25.919Z,101088.78
2022-12-01T23:04:21.533Z,101108.78
2022-12-01T23:06:57.828Z,101100.13
2022-12-01T23:09:38.448Z,101105.38
2022-12-01T23:12:20.830Z,101089.72
2022-12-01T23:14:50.407Z,101101.94
2022-12-01T23:17:39.071Z,101102.81
2022-12-01T23:20:21.611Z,101068.94
2022-12-01T23:22:49.025Z,101094.06
2022-12-01T23:25:18.237Z,101087.09
2022-12-01T23:27:47.112Z,101084.53
2022-12-01T23:30:15.703Z,101093.28
2022-12-01T23:32:43.042Z,101089.81
2022-12-01T23:35:16.599Z,101083.72
2022-12-01T23:37:46.374Z,101074.19
2022-12-01T23:40:35.230Z,101077.59
2022-12-01T23:43:23.341Z,101073.22
2022-12-01T23:45:56.124Z,101077.59
2022-12-01T23:48:25.356Z,101041.03
2022-12-01T23:50:54.367Z,101037.56
2022-12-01T23:53:29.895Z,101071.47
2022-12-01T23:56:01.055Z,101054.03
2022-12-01T23:58:28.021Z,101059.25
